sensor_id;sensor_type;location;lat;lon;timestamp;P1;durP1;ratioP1;P2;durP2;ratioP2
31716;SDS011;18301;51.076;17.046;2023-06-26T00:00:45;13.63;;;7.88;;
31716;SDS011;18301;51.076;17.046;2023-06-26T00:05:48;12.65;;;8.63;;
31716;SDS011;18301;51.076;17.046;2023-06-26T00:10:51;11.63;;;8.13;;
31716;SDS011;18301;51.076;17.046;2023-06-26T00:15:54;14.50;;;9.30;;
31716;SDS011;18301;51.076;17.046;2023-06-26T00:20:56;12.65;;;8.93;;
31716;SDS011;18301;51.076;17.046;2023-06-26T00:25:57;17.92;;;10.40;;
31716;SDS011;18301;51.076;17.046;2023-06-26T00:30:59;16.10;;;10.18;;
31716;SDS011;18301;51.076;17.046;2023-06-26T00:36:00;15.45;;;10.98;;
31716;SDS011;18301;51.076;17.046;2023-06-26T00:41:02;15.65;;;11.23;;
31716;SDS011;18301;51.076;17.046;2023-06-26T00:46:03;16.67;;;10.63;;
31716;SDS011;18301;51.076;17.046;2023-06-26T00:51:05;18.15;;;10.88;;
31716;SDS011;18301;51.076;17.046;2023-06-26T00:56:06;16.60;;;11.00;;
31716;SDS011;18301;51.076;17.046;2023-06-26T01:01:09;16.63;;;11.02;;
31716;SDS011;18301;51.076;17.046;2023-06-26T01:06:17;15.13;;;10.17;;
31716;SDS011;18301;51.076;17.046;2023-06-26T01:11:21;15.27;;;9.77;;
31716;SDS011;18301;51.076;17.046;2023-06-26T01:16:23;14.85;;;9.52;;
31716;SDS011;18301;51.076;17.046;2023-06-26T01:21:26;13.70;;;9.38;;
31716;SDS011;18301;51.076;17.046;2023-06-26T01:26:33;15.13;;;10.17;;
31716;SDS011;18301;51.076;17.046;2023-06-26T01:31:36;17.42;;;9.55;;
31716;SDS011;18301;51.076;17.046;2023-06-26T01:36:39;14.60;;;8.77;;
31716;SDS011;18301;51.076;17.046;2023-06-26T01:41:41;13.77;;;9.20;;
31716;SDS011;18301;51.076;17.046;2023-06-26T01:46:53;15.20;;;9.20;;
31716;SDS011;18301;51.076;17.046;2023-06-26T01:52:06;14.82;;;9.68;;
31716;SDS011;18301;51.076;17.046;2023-06-26T01:57:13;16.50;;;9.20;;
31716;SDS011;18301;51.076;17.046;2023-06-26T02:02:19;13.15;;;8.77;;
31716;SDS011;18301;51.076;17.046;2023-06-26T02:07:21;12.23;;;8.50;;
31716;SDS011;18301;51.076;17.046;2023-06-26T02:12:23;15.55;;;9.13;;
31716;SDS011;18301;51.076;17.046;2023-06-26T02:17:24;14.15;;;9.00;;
31716;SDS011;18301;51.076;17.046;2023-06-26T02:22:27;12.13;;;8.55;;
31716;SDS011;18301;51.076;17.046;2023-06-26T02:27:29;12.52;;;8.63;;
31716;SDS011;18301;51.076;17.046;2023-06-26T02:32:31;10.85;;;8.32;;
31716;SDS011;18301;51.076;17.046;2023-06-26T02:37:32;12.75;;;8.25;;
31716;SDS011;18301;51.076;17.046;2023-06-26T02:42:35;13.90;;;8.32;;
31716;SDS011;18301;51.076;17.046;2023-06-26T02:47:36;12.35;;;8.63;;
31716;SDS011;18301;51.076;17.046;2023-06-26T02:52:40;15.00;;;8.93;;
31716;SDS011;18301;51.076;17.046;2023-06-26T02:57:42;11.65;;;8.35;;
31716;SDS011;18301;51.076;17.046;2023-06-26T03:02:44;10.43;;;8.63;;
31716;SDS011;18301;51.076;17.046;2023-06-26T03:07:45;11.60;;;8.40;;
31716;SDS011;18301;51.076;17.046;2023-06-26T03:12:47;13.15;;;8.30;;
31716;SDS011;18301;51.076;17.046;2023-06-26T03:17:48;11.65;;;8.35;;
31716;SDS011;18301;51.076;17.046;2023-06-26T03:22:50;17.67;;;8.35;;
31716;SDS011;18301;51.076;17.046;2023-06-26T03:27:51;15.82;;;8.38;;
31716;SDS011;18301;51.076;17.046;2023-06-26T03:32:53;12.93;;;8.57;;
31716;SDS011;18301;51.076;17.046;2023-06-26T03:37:54;13.20;;;8.20;;
31716;SDS011;18301;51.076;17.046;2023-06-26T03:42:56;15.68;;;8.63;;
31716;SDS011;18301;51.076;17.046;2023-06-26T03:47:57;15.20;;;8.10;;
31716;SDS011;18301;51.076;17.046;2023-06-26T03:52:59;15.45;;;9.27;;
31716;SDS011;18301;51.076;17.046;2023-06-26T03:58:00;12.27;;;7.90;;
31716;SDS011;18301;51.076;17.046;2023-06-26T04:03:02;14.82;;;8.20;;
31716;SDS011;18301;51.076;17.046;2023-06-26T04:08:04;12.70;;;8.73;;
31716;SDS011;18301;51.076;17.046;2023-06-26T04:13:06;12.90;;;8.25;;
31716;SDS011;18301;51.076;17.046;2023-06-26T04:18:07;12.25;;;8.05;;
31716;SDS011;18301;51.076;17.046;2023-06-26T04:23:09;13.00;;;8.65;;
31716;SDS011;18301;51.076;17.046;2023-06-26T04:28:10;13.35;;;7.15;;
31716;SDS011;18301;51.076;17.046;2023-06-26T04:33:12;12.70;;;7.18;;
31716;SDS011;18301;51.076;17.046;2023-06-26T04:38:14;12.02;;;7.53;;
31716;SDS011;18301;51.076;17.046;2023-06-26T04:43:16;9.43;;;6.90;;
31716;SDS011;18301;51.076;17.046;2023-06-26T04:48:18;13.13;;;7.35;;
31716;SDS011;18301;51.076;17.046;2023-06-26T04:53:22;14.57;;;6.70;;
31716;SDS011;18301;51.076;17.046;2023-06-26T04:58:24;13.73;;;6.88;;
31716;SDS011;18301;51.076;17.046;2023-06-26T05:03:26;11.30;;;6.90;;
31716;SDS011;18301;51.076;17.046;2023-06-26T05:08:27;11.80;;;5.80;;
31716;SDS011;18301;51.076;17.046;2023-06-26T05:13:29;13.43;;;7.00;;
31716;SDS011;18301;51.076;17.046;2023-06-26T05:18:30;12.77;;;7.35;;
31716;SDS011;18301;51.076;17.046;2023-06-26T05:23:33;13.23;;;7.00;;
31716;SDS011;18301;51.076;17.046;2023-06-26T05:28:35;15.07;;;7.10;;
31716;SDS011;18301;51.076;17.046;2023-06-26T05:33:37;11.55;;;6.57;;
31716;SDS011;18301;51.076;17.046;2023-06-26T05:38:40;9.35;;;6.63;;
31716;SDS011;18301;51.076;17.046;2023-06-26T05:43:41;11.77;;;6.30;;
31716;SDS011;18301;51.076;17.046;2023-06-26T05:48:43;7.65;;;6.05;;
31716;SDS011;18301;51.076;17.046;2023-06-26T05:53:45;10.40;;;5.70;;
31716;SDS011;18301;51.076;17.046;2023-06-26T05:58:46;10.82;;;6.18;;
31716;SDS011;18301;51.076;17.046;2023-06-26T06:03:48;11.52;;;5.97;;
31716;SDS011;18301;51.076;17.046;2023-06-26T06:08:50;8.45;;;5.85;;
31716;SDS011;18301;51.076;17.046;2023-06-26T06:13:52;12.20;;;5.93;;
31716;SDS011;18301;51.076;17.046;2023-06-26T06:18:53;11.18;;;6.15;;
31716;SDS011;18301;51.076;17.046;2023-06-26T06:23:55;10.40;;;6.35;;
31716;SDS011;18301;51.076;17.046;2023-06-26T06:28:56;11.32;;;6.43;;
31716;SDS011;18301;51.076;17.046;2023-06-26T06:33:58;11.00;;;5.68;;
31716;SDS011;18301;51.076;17.046;2023-06-26T06:38:59;8.80;;;5.43;;
31716;SDS011;18301;51.076;17.046;2023-06-26T06:44:01;9.27;;;4.90;;
31716;SDS011;18301;51.076;17.046;2023-06-26T06:49:02;8.77;;;5.68;;
31716;SDS011;18301;51.076;17.046;2023-06-26T06:54:05;7.25;;;4.95;;
31716;SDS011;18301;51.076;17.046;2023-06-26T06:59:06;8.05;;;5.22;;
31716;SDS011;18301;51.076;17.046;2023-06-26T07:04:08;8.80;;;5.22;;
31716;SDS011;18301;51.076;17.046;2023-06-26T07:09:10;5.30;;;4.80;;
31716;SDS011;18301;51.076;17.046;2023-06-26T07:14:11;6.22;;;5.15;;
31716;SDS011;18301;51.076;17.046;2023-06-26T07:19:13;5.97;;;4.75;;
31716;SDS011;18301;51.076;17.046;2023-06-26T07:24:14;7.00;;;4.80;;
31716;SDS011;18301;51.076;17.046;2023-06-26T07:29:15;8.00;;;5.35;;
31716;SDS011;18301;51.076;17.046;2023-06-26T07:34:17;7.88;;;5.18;;
31716;SDS011;18301;51.076;17.046;2023-06-26T07:39:18;8.10;;;5.05;;
31716;SDS011;18301;51.076;17.046;2023-06-26T07:44:24;6.75;;;4.60;;
31716;SDS011;18301;51.076;17.046;2023-06-26T07:49:25;8.85;;;4.60;;
31716;SDS011;18301;51.076;17.046;2023-06-26T07:54:27;6.57;;;5.00;;
31716;SDS011;18301;51.076;17.046;2023-06-26T07:59:29;8.23;;;5.35;;
31716;SDS011;18301;51.076;17.046;2023-06-26T08:04:31;8.80;;;5.38;;
31716;SDS011;18301;51.076;17.046;2023-06-26T08:09:33;10.32;;;4.75;;
31716;SDS011;18301;51.076;17.046;2023-06-26T08:14:35;6.95;;;5.07;;
31716;SDS011;18301;51.076;17.046;2023-06-26T08:19:37;4.95;;;4.25;;
31716;SDS011;18301;51.076;17.046;2023-06-26T08:24:38;5.35;;;4.32;;
31716;SDS011;18301;51.076;17.046;2023-06-26T08:29:40;6.00;;;4.32;;
31716;SDS011;18301;51.076;17.046;2023-06-26T08:34:41;10.45;;;4.68;;
31716;SDS011;18301;51.076;17.046;2023-06-26T08:39:43;5.20;;;4.30;;
31716;SDS011;18301;51.076;17.046;2023-06-26T08:44:44;6.65;;;4.38;;
31716;SDS011;18301;51.076;17.046;2023-06-26T08:50:08;5.35;;;4.40;;
31716;SDS011;18301;51.076;17.046;2023-06-26T08:55:14;4.32;;;3.72;;
31716;SDS011;18301;51.076;17.046;2023-06-26T09:00:17;4.97;;;4.40;;
31716;SDS011;18301;51.076;17.046;2023-06-26T09:05:19;5.57;;;3.90;;
31716;SDS011;18301;51.076;17.046;2023-06-26T09:10:21;6.78;;;4.47;;
31716;SDS011;18301;51.076;17.046;2023-06-26T09:15:23;6.22;;;4.22;;
31716;SDS011;18301;51.076;17.046;2023-06-26T09:20:27;6.30;;;4.28;;
31716;SDS011;18301;51.076;17.046;2023-06-26T09:25:30;5.53;;;4.47;;
31716;SDS011;18301;51.076;17.046;2023-06-26T09:30:32;4.88;;;4.28;;
31716;SDS011;18301;51.076;17.046;2023-06-26T09:35:34;5.57;;;4.60;;
31716;SDS011;18301;51.076;17.046;2023-06-26T09:40:35;4.82;;;3.88;;
31716;SDS011;18301;51.076;17.046;2023-06-26T09:45:40;4.93;;;4.43;;
31716;SDS011;18301;51.076;17.046;2023-06-26T09:50:42;5.25;;;4.10;;
31716;SDS011;18301;51.076;17.046;2023-06-26T09:56:06;7.43;;;5.05;;
31716;SDS011;18301;51.076;17.046;2023-06-26T10:01:08;5.60;;;4.50;;
31716;SDS011;18301;51.076;17.046;2023-06-26T10:06:11;6.93;;;3.85;;
31716;SDS011;18301;51.076;17.046;2023-06-26T10:11:14;6.28;;;3.83;;
31716;SDS011;18301;51.076;17.046;2023-06-26T10:16:22;4.78;;;3.45;;
31716;SDS011;18301;51.076;17.046;2023-06-26T10:21:27;5.97;;;4.10;;
31716;SDS011;18301;51.076;17.046;2023-06-26T10:26:30;6.03;;;3.63;;
31716;SDS011;18301;51.076;17.046;2023-06-26T10:31:36;4.50;;;3.60;;
31716;SDS011;18301;51.076;17.046;2023-06-26T10:36:40;5.80;;;4.25;;
31716;SDS011;18301;51.076;17.046;2023-06-26T10:41:42;4.70;;;3.72;;
31716;SDS011;18301;51.076;17.046;2023-06-26T10:47:00;4.85;;;3.53;;
31716;SDS011;18301;51.076;17.046;2023-06-26T10:52:02;5.35;;;4.07;;
31716;SDS011;18301;51.076;17.046;2023-06-26T10:57:04;4.50;;;3.95;;
31716;SDS011;18301;51.076;17.046;2023-06-26T11:02:08;5.60;;;4.38;;
31716;SDS011;18301;51.076;17.046;2023-06-26T11:07:15;5.18;;;3.97;;
31716;SDS011;18301;51.076;17.046;2023-06-26T11:12:33;5.30;;;3.60;;
31716;SDS011;18301;51.076;17.046;2023-06-26T11:17:55;5.25;;;3.85;;
31716;SDS011;18301;51.076;17.046;2023-06-26T11:22:59;4.35;;;3.50;;
31716;SDS011;18301;51.076;17.046;2023-06-26T11:28:01;5.38;;;3.65;;
31716;SDS011;18301;51.076;17.046;2023-06-26T11:33:06;6.18;;;4.50;;
31716;SDS011;18301;51.076;17.046;2023-06-26T11:38:11;4.35;;;3.75;;
31716;SDS011;18301;51.076;17.046;2023-06-26T11:43:12;6.13;;;3.67;;
31716;SDS011;18301;51.076;17.046;2023-06-26T11:48:15;4.70;;;3.90;;
31716;SDS011;18301;51.076;17.046;2023-06-26T11:53:16;4.00;;;3.50;;
31716;SDS011;18301;51.076;17.046;2023-06-26T11:58:18;7.28;;;3.95;;
31716;SDS011;18301;51.076;17.046;2023-06-26T12:03:20;4.32;;;3.80;;
31716;SDS011;18301;51.076;17.046;2023-06-26T12:08:22;5.10;;;4.00;;
31716;SDS011;18301;51.076;17.046;2023-06-26T12:13:24;5.45;;;3.90;;
31716;SDS011;18301;51.076;17.046;2023-06-26T12:18:25;4.60;;;3.75;;
31716;SDS011;18301;51.076;17.046;2023-06-26T12:23:38;4.40;;;3.70;;
31716;SDS011;18301;51.076;17.046;2023-06-26T12:28:40;4.65;;;3.70;;
31716;SDS011;18301;51.076;17.046;2023-06-26T12:33:42;5.53;;;3.92;;
31716;SDS011;18301;51.076;17.046;2023-06-26T12:38:45;5.00;;;3.85;;
31716;SDS011;18301;51.076;17.046;2023-06-26T12:43:55;3.80;;;3.40;;
31716;SDS011;18301;51.076;17.046;2023-06-26T12:48:56;6.00;;;3.80;;
31716;SDS011;18301;51.076;17.046;2023-06-26T12:53:59;4.30;;;3.72;;
31716;SDS011;18301;51.076;17.046;2023-06-26T12:59:00;5.28;;;3.70;;
31716;SDS011;18301;51.076;17.046;2023-06-26T13:04:02;4.53;;;3.72;;
31716;SDS011;18301;51.076;17.046;2023-06-26T13:09:05;6.07;;;3.85;;
31716;SDS011;18301;51.076;17.046;2023-06-26T13:14:06;5.68;;;3.72;;
31716;SDS011;18301;51.076;17.046;2023-06-26T13:19:12;3.95;;;3.53;;
31716;SDS011;18301;51.076;17.046;2023-06-26T13:24:13;3.80;;;3.33;;
31716;SDS011;18301;51.076;17.046;2023-06-26T13:29:15;5.32;;;4.18;;
31716;SDS011;18301;51.076;17.046;2023-06-26T13:34:23;4.53;;;3.53;;
31716;SDS011;18301;51.076;17.046;2023-06-26T13:39:28;7.25;;;4.10;;
31716;SDS011;18301;51.076;17.046;2023-06-26T13:44:30;4.13;;;3.40;;
31716;SDS011;18301;51.076;17.046;2023-06-26T13:49:38;4.13;;;2.95;;
31716;SDS011;18301;51.076;17.046;2023-06-26T13:54:40;4.70;;;3.65;;
31716;SDS011;18301;51.076;17.046;2023-06-26T13:59:42;4.78;;;3.85;;
31716;SDS011;18301;51.076;17.046;2023-06-26T14:04:47;4.55;;;3.55;;
31716;SDS011;18301;51.076;17.046;2023-06-26T14:09:49;3.65;;;3.35;;
31716;SDS011;18301;51.076;17.046;2023-06-26T14:14:50;5.28;;;3.92;;
31716;SDS011;18301;51.076;17.046;2023-06-26T14:19:52;3.38;;;3.08;;
31716;SDS011;18301;51.076;17.046;2023-06-26T14:24:54;3.42;;;3.13;;
31716;SDS011;18301;51.076;17.046;2023-06-26T14:29:55;4.05;;;3.42;;
31716;SDS011;18301;51.076;17.046;2023-06-26T14:34:57;4.88;;;3.47;;
31716;SDS011;18301;51.076;17.046;2023-06-26T14:39:59;4.75;;;3.38;;
31716;SDS011;18301;51.076;17.046;2023-06-26T14:45:01;4.03;;;3.40;;
31716;SDS011;18301;51.076;17.046;2023-06-26T14:50:03;5.07;;;3.47;;
31716;SDS011;18301;51.076;17.046;2023-06-26T14:55:05;4.57;;;3.47;;
31716;SDS011;18301;51.076;17.046;2023-06-26T15:00:08;4.10;;;3.40;;
31716;SDS011;18301;51.076;17.046;2023-06-26T15:05:10;5.57;;;3.78;;
31716;SDS011;18301;51.076;17.046;2023-06-26T15:10:12;3.80;;;3.40;;
31716;SDS011;18301;51.076;17.046;2023-06-26T15:15:14;5.57;;;3.50;;
31716;SDS011;18301;51.076;17.046;2023-06-26T15:20:16;5.35;;;4.00;;
31716;SDS011;18301;51.076;17.046;2023-06-26T15:25:17;5.22;;;3.63;;
31716;SDS011;18301;51.076;17.046;2023-06-26T15:30:19;4.68;;;3.65;;
31716;SDS011;18301;51.076;17.046;2023-06-26T15:35:20;3.75;;;2.88;;
31716;SDS011;18301;51.076;17.046;2023-06-26T15:40:22;4.38;;;3.90;;
31716;SDS011;18301;51.076;17.046;2023-06-26T15:45:23;6.22;;;4.10;;
31716;SDS011;18301;51.076;17.046;2023-06-26T15:50:28;5.18;;;3.83;;
31716;SDS011;18301;51.076;17.046;2023-06-26T15:55:30;5.47;;;3.88;;
31716;SDS011;18301;51.076;17.046;2023-06-26T16:00:31;5.40;;;3.75;;
31716;SDS011;18301;51.076;17.046;2023-06-26T16:05:33;5.07;;;3.97;;
31716;SDS011;18301;51.076;17.046;2023-06-26T16:10:34;6.65;;;4.10;;
31716;SDS011;18301;51.076;17.046;2023-06-26T16:15:36;5.57;;;4.75;;
31716;SDS011;18301;51.076;17.046;2023-06-26T16:20:38;5.28;;;4.13;;
31716;SDS011;18301;51.076;17.046;2023-06-26T16:25:39;4.88;;;4.00;;
31716;SDS011;18301;51.076;17.046;2023-06-26T16:30:41;5.28;;;4.30;;
31716;SDS011;18301;51.076;17.046;2023-06-26T16:35:43;4.95;;;4.13;;
31716;SDS011;18301;51.076;17.046;2023-06-26T16:40:44;5.70;;;4.40;;
31716;SDS011;18301;51.076;17.046;2023-06-26T16:45:46;5.88;;;4.40;;
31716;SDS011;18301;51.076;17.046;2023-06-26T16:50:47;5.63;;;4.07;;
31716;SDS011;18301;51.076;17.046;2023-06-26T16:55:49;5.90;;;4.07;;
31716;SDS011;18301;51.076;17.046;2023-06-26T17:00:51;5.30;;;3.97;;
31716;SDS011;18301;51.076;17.046;2023-06-26T17:05:52;4.95;;;4.05;;
31716;SDS011;18301;51.076;17.046;2023-06-26T17:10:54;5.22;;;4.70;;
31716;SDS011;18301;51.076;17.046;2023-06-26T17:15:55;3.85;;;3.30;;
31716;SDS011;18301;51.076;17.046;2023-06-26T17:20:57;6.03;;;3.67;;
31716;SDS011;18301;51.076;17.046;2023-06-26T17:25:58;6.60;;;3.90;;
31716;SDS011;18301;51.076;17.046;2023-06-26T17:31:03;6.30;;;3.90;;
31716;SDS011;18301;51.076;17.046;2023-06-26T17:36:05;8.23;;;4.30;;
31716;SDS011;18301;51.076;17.046;2023-06-26T17:41:07;7.30;;;4.00;;
31716;SDS011;18301;51.076;17.046;2023-06-26T17:46:08;5.00;;;4.22;;
31716;SDS011;18301;51.076;17.046;2023-06-26T17:51:10;5.88;;;3.60;;
31716;SDS011;18301;51.076;17.046;2023-06-26T17:56:11;4.85;;;4.00;;
31716;SDS011;18301;51.076;17.046;2023-06-26T18:01:13;5.75;;;4.13;;
31716;SDS011;18301;51.076;17.046;2023-06-26T18:06:14;4.63;;;4.03;;
31716;SDS011;18301;51.076;17.046;2023-06-26T18:11:16;6.00;;;4.32;;
31716;SDS011;18301;51.076;17.046;2023-06-26T18:16:17;5.88;;;4.20;;
31716;SDS011;18301;51.076;17.046;2023-06-26T18:21:19;6.43;;;4.20;;
31716;SDS011;18301;51.076;17.046;2023-06-26T18:26:21;6.45;;;4.50;;
31716;SDS011;18301;51.076;17.046;2023-06-26T18:31:23;7.22;;;4.97;;
31716;SDS011;18301;51.076;17.046;2023-06-26T18:36:24;7.63;;;4.43;;
31716;SDS011;18301;51.076;17.046;2023-06-26T18:41:26;5.00;;;4.28;;
31716;SDS011;18301;51.076;17.046;2023-06-26T18:46:27;6.15;;;4.20;;
31716;SDS011;18301;51.076;17.046;2023-06-26T18:51:29;7.05;;;5.13;;
31716;SDS011;18301;51.076;17.046;2023-06-26T18:56:34;6.85;;;5.05;;
31716;SDS011;18301;51.076;17.046;2023-06-26T19:01:35;7.70;;;4.50;;
31716;SDS011;18301;51.076;17.046;2023-06-26T19:06:37;6.40;;;4.57;;
31716;SDS011;18301;51.076;17.046;2023-06-26T19:11:39;6.43;;;4.68;;
31716;SDS011;18301;51.076;17.046;2023-06-26T19:16:40;7.47;;;4.63;;
31716;SDS011;18301;51.076;17.046;2023-06-26T19:21:42;5.43;;;4.60;;
31716;SDS011;18301;51.076;17.046;2023-06-26T19:26:43;6.68;;;4.93;;
31716;SDS011;18301;51.076;17.046;2023-06-26T19:31:45;6.32;;;4.75;;
31716;SDS011;18301;51.076;17.046;2023-06-26T19:36:48;6.65;;;4.32;;
31716;SDS011;18301;51.076;17.046;2023-06-26T19:41:52;8.25;;;4.85;;
31716;SDS011;18301;51.076;17.046;2023-06-26T19:46:54;5.80;;;4.38;;
31716;SDS011;18301;51.076;17.046;2023-06-26T19:51:55;7.90;;;4.40;;
31716;SDS011;18301;51.076;17.046;2023-06-26T19:56:57;5.18;;;4.57;;
31716;SDS011;18301;51.076;17.046;2023-06-26T20:01:59;12.30;;;3.70;;
31716;SDS011;18301;51.076;17.046;2023-06-26T20:07:00;10.32;;;3.47;;
31716;SDS011;18301;51.076;17.046;2023-06-26T20:12:07;8.30;;;3.50;;
31716;SDS011;18301;51.076;17.046;2023-06-26T20:17:09;5.95;;;3.00;;
31716;SDS011;18301;51.076;17.046;2023-06-26T20:22:10;6.15;;;2.50;;
31716;SDS011;18301;51.076;17.046;2023-06-26T20:27:12;9.48;;;2.65;;
31716;SDS011;18301;51.076;17.046;2023-06-26T20:32:13;3.72;;;2.00;;
31716;SDS011;18301;51.076;17.046;2023-06-26T20:37:15;6.00;;;2.10;;
31716;SDS011;18301;51.076;17.046;2023-06-26T20:42:16;4.95;;;2.13;;
31716;SDS011;18301;51.076;17.046;2023-06-26T20:47:19;4.40;;;2.08;;
31716;SDS011;18301;51.076;17.046;2023-06-26T20:52:21;6.70;;;2.15;;
31716;SDS011;18301;51.076;17.046;2023-06-26T20:57:26;2.92;;;1.90;;
31716;SDS011;18301;51.076;17.046;2023-06-26T21:02:27;4.53;;;2.33;;
31716;SDS011;18301;51.076;17.046;2023-06-26T21:07:29;6.25;;;2.28;;
31716;SDS011;18301;51.076;17.046;2023-06-26T21:12:31;4.70;;;2.65;;
31716;SDS011;18301;51.076;17.046;2023-06-26T21:17:32;3.90;;;2.88;;
31716;SDS011;18301;51.076;17.046;2023-06-26T21:22:34;5.05;;;3.38;;
31716;SDS011;18301;51.076;17.046;2023-06-26T21:27:35;7.80;;;3.88;;
31716;SDS011;18301;51.076;17.046;2023-06-26T21:32:37;7.00;;;4.47;;
31716;SDS011;18301;51.076;17.046;2023-06-26T21:37:39;7.75;;;4.60;;
31716;SDS011;18301;51.076;17.046;2023-06-26T21:42:40;7.75;;;5.25;;
31716;SDS011;18301;51.076;17.046;2023-06-26T21:47:42;9.45;;;5.75;;
31716;SDS011;18301;51.076;17.046;2023-06-26T21:52:43;8.70;;;6.22;;
31716;SDS011;18301;51.076;17.046;2023-06-26T21:57:45;8.68;;;6.47;;
31716;SDS011;18301;51.076;17.046;2023-06-26T22:02:46;11.10;;;7.13;;
31716;SDS011;18301;51.076;17.046;2023-06-26T22:07:48;8.82;;;6.82;;
31716;SDS011;18301;51.076;17.046;2023-06-26T22:12:56;10.65;;;7.32;;
31716;SDS011;18301;51.076;17.046;2023-06-26T22:17:58;7.93;;;6.97;;
31716;SDS011;18301;51.076;17.046;2023-06-26T22:23:00;10.85;;;8.13;;
31716;SDS011;18301;51.076;17.046;2023-06-26T22:28:01;9.05;;;7.47;;
31716;SDS011;18301;51.076;17.046;2023-06-26T22:33:03;9.68;;;7.72;;
31716;SDS011;18301;51.076;17.046;2023-06-26T22:38:05;11.52;;;7.63;;
31716;SDS011;18301;51.076;17.046;2023-06-26T22:43:06;10.30;;;7.97;;
31716;SDS011;18301;51.076;17.046;2023-06-26T22:48:08;9.75;;;7.85;;
31716;SDS011;18301;51.076;17.046;2023-06-26T22:53:13;9.60;;;7.47;;
31716;SDS011;18301;51.076;17.046;2023-06-26T22:58:19;9.65;;;7.50;;
31716;SDS011;18301;51.076;17.046;2023-06-26T23:03:22;11.43;;;8.23;;
31716;SDS011;18301;51.076;17.046;2023-06-26T23:08:24;8.82;;;7.57;;
31716;SDS011;18301;51.076;17.046;2023-06-26T23:13:26;9.80;;;7.47;;
31716;SDS011;18301;51.076;17.046;2023-06-26T23:18:27;12.27;;;8.13;;
31716;SDS011;18301;51.076;17.046;2023-06-26T23:23:29;11.13;;;8.43;;
31716;SDS011;18301;51.076;17.046;2023-06-26T23:28:30;10.43;;;8.00;;
31716;SDS011;18301;51.076;17.046;2023-06-26T23:33:33;12.57;;;9.25;;
31716;SDS011;18301;51.076;17.046;2023-06-26T23:38:38;12.95;;;10.02;;
31716;SDS011;18301;51.076;17.046;2023-06-26T23:43:46;14.17;;;10.00;;
31716;SDS011;18301;51.076;17.046;2023-06-26T23:48:47;11.43;;;9.63;;
31716;SDS011;18301;51.076;17.046;2023-06-26T23:53:49;11.32;;;9.38;;
31716;SDS011;18301;51.076;17.046;2023-06-26T23:58:50;10.88;;;9.13;;
